Taoxian Airport
ZYTX : now visible

Airfield :











YOU CAN JOIN US ON...

 
LOGIN :

Register | Disclaimer

   EN    FR    IT 

 









Legend :    VFR   Marginal VFR   IFR   Intensive IFR   Very Intensive IFR
Visi :
Ceiling :
>= 8 km
>= 3000ft
5 to 8 km
1000 to 3000 ft
1500m to 5 km
500 to 1000 ft
800 to 1500m
200 to 500 ft
< 800m
< 200 ft
Symbols :   Thunderstorms  Fog  Heavy snow  Heavy precipitations  Wind > 20 kt







- Airport Elevation : 198 ft
- IATA code : SHE


ZYTX - Taoxian

CURRENT METAR :
  • 211930Z 04003MPS CAVOK 11/09 Q1023 NOSIG

EXPIRED METARs :
  • 211900Z 04003MPS CAVOK 11/09 Q1023 NOSIG
  • 211830Z 04003MPS CAVOK 11/09 Q1023 NOSIG
  • 211800Z 05003MPS CAVOK 09/08 Q1023 NOSIG
  • 211730Z 05003MPS CAVOK 10/08 Q1024 NOSIG
  • 211700Z 04002MPS CAVOK 10/07 Q1024 NOSIG
  • 211630Z 05003MPS CAVOK 11/07 Q1024 NOSIG

TAF TAF ZYTX
Valid from the 21 at 18:00 until the 22 at 18:00 UTC


211312Z 2118/2218 04004MPS CAVOK TX24/2206Z TN10/2121Z
No reported NOTAMs for that airfield.



MET'MAP, your aeronautical weather chart ! - Copyright ORBIFLY December 2007 - Disclaimer

ORBIFLY MET'MAP TEAM :

Programming & Development : Alexandra Zaïnal
Concept & Development : Baudouin d'Aumeries
Co-Development & Prog : Marc-Olivier Méhu
Technical & hardware support : Manuel Goepfert

Contact : metmap@orbifly.com




SOURCES & CREDITS :

   NOAA       Earth
Advisory